createdAt,value
2018-07-28T00:00:28.827Z,12.67
2018-07-28T00:02:57.485Z,13.13
2018-07-28T00:05:26.132Z,21.13
2018-07-28T00:07:54.772Z,15.30
2018-07-28T00:10:23.428Z,16.30
2018-07-28T00:12:52.033Z,17.30
2018-07-28T00:15:20.715Z,17.60
2018-07-28T00:17:49.357Z,16.53
2018-07-28T00:20:18.002Z,14.67
2018-07-28T00:22:46.647Z,12.83
2018-07-28T00:25:15.295Z,12.50
2018-07-28T00:27:43.913Z,11.47
2018-07-28T00:30:13.547Z,14.83
2018-07-28T00:32:42.209Z,16.50
2018-07-28T00:35:10.877Z,12.30
2018-07-28T00:37:39.562Z,12.17
2018-07-28T00:40:08.820Z,12.97
2018-07-28T00:42:37.836Z,16.13
2018-07-28T00:45:06.986Z,14.00
2018-07-28T00:47:35.680Z,12.07
2018-07-28T00:50:04.967Z,12.87
2018-07-28T00:52:33.652Z,16.20
2018-07-28T00:55:02.261Z,12.33
2018-07-28T00:57:30.837Z,12.97
2018-07-28T00:59:59.558Z,12.90
2018-07-28T01:02:28.169Z,11.60
2018-07-28T01:04:56.869Z,10.77
2018-07-28T01:07:25.480Z,15.03
2018-07-28T01:09:54.188Z,16.00
2018-07-28T01:12:22.818Z,12.23
2018-07-28T01:14:51.703Z,13.40
2018-07-28T01:17:20.819Z,10.53
2018-07-28T01:19:49.502Z,10.53
2018-07-28T01:22:18.251Z,10.67
2018-07-28T01:24:47.575Z,14.97
2018-07-28T01:27:16.162Z,14.17
2018-07-28T01:29:44.896Z,14.20
2018-07-28T01:32:13.506Z,12.40
2018-07-28T01:34:42.117Z,10.30
2018-07-28T01:37:11.120Z,10.87
2018-07-28T01:39:39.792Z,14.30
2018-07-28T01:42:08.404Z,13.80
2018-07-28T01:44:37.055Z,15.30
2018-07-28T01:47:05.720Z,15.57
2018-07-28T01:49:34.311Z,13.83
2018-07-28T01:52:02.874Z,11.00
2018-07-28T01:54:31.485Z,10.57
2018-07-28T01:57:00.090Z,11.63
2018-07-28T01:59:28.711Z,12.63
2018-07-28T02:01:57.352Z,13.87
2018-07-28T02:04:26.326Z,15.60
2018-07-28T02:06:54.916Z,12.73
2018-07-28T02:09:23.516Z,10.13
2018-07-28T02:11:52.128Z,12.47
2018-07-28T02:14:20.847Z,11.20
2018-07-28T02:16:49.547Z,10.47
2018-07-28T02:19:18.201Z,12.50
2018-07-28T02:21:46.840Z,14.27
2018-07-28T02:24:15.431Z,11.37
2018-07-28T02:26:44.339Z,14.60
2018-07-28T02:29:13.000Z,14.50
2018-07-28T02:31:42.124Z,13.10
2018-07-28T02:34:10.858Z,14.97
2018-07-28T02:36:39.484Z,12.13
2018-07-28T02:39:10.142Z,12.70
2018-07-28T02:41:39.081Z,10.47
2018-07-28T02:44:08.162Z,12.07
2018-07-28T02:46:37.169Z,12.40
2018-07-28T02:49:06.290Z,10.50
2018-07-28T02:51:34.898Z,9.90
2018-07-28T02:54:03.654Z,13.53
2018-07-28T02:56:39.677Z,11.43
2018-07-28T02:59:08.300Z,14.97
2018-07-28T03:01:36.908Z,14.53
2018-07-28T03:04:05.794Z,12.03
2018-07-28T03:06:34.535Z,10.47
2018-07-28T03:09:03.408Z,11.90
2018-07-28T03:11:32.099Z,14.03
2018-07-28T03:14:00.922Z,12.10
2018-07-28T03:16:30.563Z,10.70
2018-07-28T03:18:59.143Z,11.70
2018-07-28T03:21:27.696Z,10.87
2018-07-28T03:23:56.827Z,14.00
2018-07-28T03:26:25.415Z,16.70
2018-07-28T03:28:54.176Z,11.33
2018-07-28T03:31:22.899Z,11.10
2018-07-28T03:33:51.861Z,11.37
2018-07-28T03:36:20.433Z,12.30
2018-07-28T03:38:49.380Z,16.80
2018-07-28T03:41:18.007Z,14.10
2018-07-28T03:43:46.627Z,14.20
2018-07-28T03:46:15.274Z,15.17
2018-07-28T03:48:43.858Z,14.87
2018-07-28T03:51:12.451Z,12.50
2018-07-28T03:53:41.277Z,15.10
2018-07-28T03:56:09.982Z,12.20
2018-07-28T03:58:38.579Z,11.10
2018-07-28T04:01:07.289Z,12.00
2018-07-28T04:03:35.871Z,11.67
2018-07-28T04:06:04.500Z,11.77
2018-07-28T04:08:33.065Z,12.63
2018-07-28T04:11:01.702Z,14.23
2018-07-28T04:13:30.547Z,12.23
2018-07-28T04:15:59.165Z,11.30
2018-07-28T04:18:27.749Z,12.10
2018-07-28T04:20:56.509Z,13.70
2018-07-28T04:23:25.082Z,12.57
2018-07-28T04:25:53.775Z,11.60
2018-07-28T04:28:22.547Z,11.73
2018-07-28T04:30:52.169Z,10.90
2018-07-28T04:33:20.762Z,12.20
2018-07-28T04:35:49.311Z,12.50
2018-07-28T04:38:17.969Z,15.23
2018-07-28T04:40:46.943Z,11.53
2018-07-28T04:43:15.543Z,15.30
2018-07-28T04:45:44.148Z,12.53
2018-07-28T04:48:13.157Z,17.90
2018-07-28T04:50:41.889Z,11.63
2018-07-28T04:53:10.477Z,11.63
2018-07-28T04:55:39.097Z,11.50
2018-07-28T04:58:08.261Z,11.43
2018-07-28T05:00:36.828Z,11.53
2018-07-28T05:03:05.466Z,13.27
2018-07-28T05:05:34.675Z,15.50
2018-07-28T05:08:03.408Z,12.80
2018-07-28T05:10:32.025Z,13.73
2018-07-28T05:13:00.651Z,15.20
2018-07-28T05:15:29.236Z,18.20
2018-07-28T05:17:57.989Z,12.27
2018-07-28T05:20:26.595Z,16.17
2018-07-28T05:22:55.200Z,14.03
2018-07-28T05:25:23.853Z,15.20
2018-07-28T05:27:52.443Z,18.40
2018-07-28T05:30:21.104Z,11.80
2018-07-28T05:32:49.714Z,30.97
2018-07-28T05:35:18.291Z,13.90
2018-07-28T05:37:47.072Z,15.97
2018-07-28T05:40:15.664Z,13.80
2018-07-28T05:42:44.339Z,14.63
2018-07-28T05:45:12.984Z,12.10
2018-07-28T05:47:41.540Z,13.53
2018-07-28T05:50:10.483Z,15.73
2018-07-28T05:52:39.143Z,14.10
2018-07-28T05:55:08.293Z,14.67
2018-07-28T05:57:37.632Z,14.43
2018-07-28T06:00:07.630Z,13.53
2018-07-28T06:02:36.494Z,15.40
2018-07-28T06:05:06.324Z,12.23
2018-07-28T06:07:35.049Z,12.60
2018-07-28T06:10:04.482Z,13.27
2018-07-28T06:12:33.175Z,11.30
2018-07-28T06:15:01.882Z,13.43
2018-07-28T06:17:30.498Z,17.70
2018-07-28T06:19:59.142Z,13.10
2018-07-28T06:22:27.901Z,10.77
2018-07-28T06:24:56.781Z,11.90
2018-07-28T06:27:25.408Z,12.47
2018-07-28T06:29:53.979Z,11.03
2018-07-28T06:32:22.689Z,10.90
2018-07-28T06:34:51.673Z,13.30
2018-07-28T06:37:20.360Z,12.40
2018-07-28T06:39:48.997Z,11.20
2018-07-28T06:42:17.619Z,10.90
2018-07-28T06:44:46.300Z,12.80
2018-07-28T06:47:14.933Z,10.57
2018-07-28T06:49:43.570Z,10.87
2018-07-28T06:52:12.316Z,9.73
2018-07-28T06:54:41.624Z,10.97
2018-07-28T06:57:10.283Z,13.77
2018-07-28T06:59:38.976Z,10.70
2018-07-28T07:02:07.925Z,9.37
2018-07-28T07:04:36.639Z,13.20
2018-07-28T07:07:05.346Z,9.23
2018-07-28T07:09:34.010Z,9.07
2018-07-28T07:12:02.629Z,12.57
2018-07-28T07:14:31.300Z,10.40
2018-07-28T07:16:59.958Z,9.37
2018-07-28T07:19:29.341Z,9.63
2018-07-28T07:21:58.148Z,14.47
2018-07-28T07:24:26.783Z,9.57
2018-07-28T07:26:55.516Z,9.20
2018-07-28T07:29:24.252Z,11.80
2018-07-28T07:31:53.007Z,9.10
2018-07-28T07:34:21.622Z,9.83
2018-07-28T07:36:50.230Z,9.67
2018-07-28T07:39:19.683Z,12.20
2018-07-28T07:41:48.383Z,10.37
2018-07-28T07:44:17.730Z,10.70
2018-07-28T07:46:47.418Z,13.73
2018-07-28T07:49:16.064Z,10.03
2018-07-28T07:51:44.723Z,13.87
2018-07-28T07:54:14.112Z,10.97
2018-07-28T07:56:42.759Z,10.03
2018-07-28T07:59:11.772Z,11.03
2018-07-28T08:01:40.473Z,9.60
2018-07-28T08:04:09.283Z,12.10
2018-07-28T08:06:38.333Z,12.90
2018-07-28T08:09:08.896Z,13.63
2018-07-28T08:11:37.695Z,17.87
2018-07-28T08:14:06.389Z,14.13
2018-07-28T08:16:35.034Z,12.60
2018-07-28T08:19:04.112Z,18.10
2018-07-28T08:21:33.053Z,12.90
2018-07-28T08:24:02.502Z,12.90
2018-07-28T08:26:31.197Z,13.60
2018-07-28T08:29:00.109Z,13.23
2018-07-28T08:31:28.830Z,14.53
2018-07-28T08:33:57.636Z,15.40
2018-07-28T08:36:26.348Z,13.77
2018-07-28T08:38:55.298Z,13.50
2018-07-28T08:41:23.998Z,15.60
2018-07-28T08:43:52.681Z,12.40
2018-07-28T08:46:22.022Z,14.83
2018-07-28T08:48:50.597Z,13.27
2018-07-28T08:51:19.422Z,15.03
2018-07-28T08:53:48.062Z,12.60
2018-07-28T08:56:16.731Z,11.20
2018-07-28T08:58:45.408Z,13.73
2018-07-28T09:01:14.103Z,15.90
2018-07-28T09:03:43.467Z,16.00
2018-07-28T09:06:12.169Z,13.80
2018-07-28T09:08:40.882Z,12.53
2018-07-28T09:11:09.572Z,12.60
2018-07-28T09:13:40.057Z,15.00
2018-07-28T09:16:09.122Z,13.30
2018-07-28T09:18:38.231Z,12.13
2018-07-28T09:21:07.737Z,11.23
2018-07-28T09:23:36.724Z,12.13
2018-07-28T09:26:06.212Z,12.17
2018-07-28T09:28:34.933Z,12.33
2018-07-28T09:31:03.697Z,17.40
2018-07-28T09:33:32.764Z,10.80
2018-07-28T09:36:01.615Z,10.00
2018-07-28T09:38:30.361Z,9.53
2018-07-28T09:40:59.837Z,10.30
2018-07-28T09:43:28.981Z,18.83
2018-07-28T09:45:58.418Z,11.23
2018-07-28T09:48:27.817Z,9.10
2018-07-28T09:50:56.440Z,9.40
2018-07-28T09:53:25.204Z,8.80
2018-07-28T09:55:53.849Z,9.50
2018-07-28T09:58:22.940Z,10.80
2018-07-28T10:00:57.093Z,7.80
2018-07-28T10:03:26.495Z,9.13
2018-07-28T10:05:55.248Z,7.53
2018-07-28T10:08:23.970Z,6.63
2018-07-28T10:10:52.845Z,7.57
2018-07-28T10:13:21.724Z,7.27
2018-07-28T10:15:50.902Z,7.70
2018-07-28T10:18:19.622Z,9.13
2018-07-28T10:20:49.548Z,8.00
2018-07-28T10:23:18.523Z,9.93
2018-07-28T10:25:47.337Z,7.70
2018-07-28T10:28:16.476Z,7.60
2018-07-28T10:30:46.189Z,7.33
2018-07-28T10:33:14.943Z,7.27
2018-07-28T10:35:43.704Z,7.53
2018-07-28T10:38:12.323Z,6.87
2018-07-28T10:40:40.951Z,7.10
2018-07-28T10:43:09.655Z,6.87
2018-07-28T10:45:38.400Z,8.40
2018-07-28T10:48:07.767Z,15.30
2018-07-28T10:50:36.362Z,16.97
2018-07-28T10:53:05.116Z,13.40
2018-07-28T10:55:33.819Z,8.03
2018-07-28T10:58:02.454Z,8.40
2018-07-28T11:00:31.330Z,9.10
2018-07-28T11:02:59.937Z,7.67
2018-07-28T11:05:29.533Z,6.10
2018-07-28T11:07:58.145Z,5.30
2018-07-28T11:10:26.806Z,5.10
2018-07-28T11:12:55.414Z,5.73
2018-07-28T11:15:24.129Z,5.87
2018-07-28T11:17:52.763Z,6.33
2018-07-28T11:20:21.389Z,5.20
2018-07-28T11:22:50.022Z,6.30
2018-07-28T11:25:18.699Z,8.30
2018-07-28T11:27:47.439Z,6.60
2018-07-28T11:30:16.261Z,6.63
2018-07-28T11:32:56.757Z,7.27
2018-07-28T11:35:36.644Z,7.70
2018-07-28T11:38:41.842Z,6.50
2018-07-28T11:41:21.889Z,8.17
2018-07-28T11:44:01.637Z,7.03
2018-07-28T11:46:30.265Z,6.97
2018-07-28T11:48:58.836Z,7.23
2018-07-28T11:51:27.997Z,6.90
2018-07-28T11:53:56.659Z,7.47
2018-07-28T11:56:25.302Z,7.27
2018-07-28T11:58:53.935Z,7.20
2018-07-28T12:01:23.127Z,8.57
2018-07-28T12:03:51.764Z,6.77
2018-07-28T12:06:21.033Z,9.00
2018-07-28T12:08:49.752Z,7.10
2018-07-28T12:11:18.560Z,7.47
2018-07-28T12:13:47.141Z,6.90
2018-07-28T12:16:15.749Z,7.87
2018-07-28T12:18:44.435Z,6.70
2018-07-28T12:21:13.225Z,7.57
2018-07-28T12:23:42.204Z,7.03
2018-07-28T12:26:10.787Z,8.37
2018-07-28T12:28:40.112Z,7.73
2018-07-28T12:31:09.519Z,6.90
2018-07-28T12:33:39.559Z,8.63
2018-07-28T12:36:08.740Z,7.33
2018-07-28T12:38:37.473Z,7.77
2018-07-28T12:41:06.271Z,11.87
2018-07-28T12:43:35.093Z,8.07
2018-07-28T12:46:03.761Z,9.83
2018-07-28T12:48:32.487Z,19.87
2018-07-28T12:51:01.341Z,12.53
2018-07-28T12:53:29.946Z,10.90
2018-07-28T12:55:58.611Z,11.07
2018-07-28T12:58:27.305Z,7.40
2018-07-28T13:00:55.954Z,11.03
2018-07-28T13:03:25.223Z,8.03
2018-07-28T13:05:53.934Z,10.07
2018-07-28T13:08:23.296Z,10.20
2018-07-28T13:10:51.966Z,6.57
2018-07-28T13:13:20.582Z,6.30
2018-07-28T13:15:49.230Z,7.50
2018-07-28T13:18:18.698Z,6.30
2018-07-28T13:20:47.445Z,6.53
2018-07-28T13:23:16.116Z,7.97
2018-07-28T13:25:44.767Z,6.60
2018-07-28T13:28:13.400Z,6.90
2018-07-28T13:30:42.413Z,6.87
2018-07-28T13:33:11.016Z,8.93
2018-07-28T13:35:40.721Z,10.17
2018-07-28T13:38:09.790Z,10.90
2018-07-28T13:40:38.639Z,7.47
2018-07-28T13:43:07.353Z,9.83
2018-07-28T13:45:35.984Z,8.00
2018-07-28T13:48:04.957Z,6.57
2018-07-28T13:50:33.684Z,6.50
2018-07-28T13:53:02.465Z,7.30
2018-07-28T13:55:31.081Z,9.80
2018-07-28T13:57:59.751Z,7.90
2018-07-28T14:00:28.813Z,9.00
2018-07-28T14:02:57.776Z,7.80
2018-07-28T14:05:26.402Z,7.93
2018-07-28T14:07:55.039Z,7.30
2018-07-28T14:10:23.670Z,8.53
2018-07-28T14:12:52.325Z,6.63
2018-07-28T14:15:21.113Z,7.07
2018-07-28T14:17:49.858Z,7.13
2018-07-28T14:20:18.570Z,6.50
2018-07-28T14:22:47.649Z,6.47
2018-07-28T14:25:16.409Z,7.40
2018-07-28T14:27:45.059Z,8.97
2018-07-28T14:30:13.877Z,7.10
2018-07-28T14:32:42.591Z,7.90
2018-07-28T14:35:12.837Z,8.60
2018-07-28T14:37:43.645Z,8.40
2018-07-28T14:40:12.286Z,7.60
2018-07-28T14:42:40.925Z,8.53
2018-07-28T14:45:11.157Z,9.33
2018-07-28T14:47:40.167Z,7.90
2018-07-28T14:50:08.883Z,5.93
2018-07-28T14:52:37.584Z,7.43
2018-07-28T14:55:06.381Z,8.03
2018-07-28T14:57:35.082Z,7.07
2018-07-28T15:00:03.930Z,8.07
2018-07-28T15:02:32.602Z,9.87
2018-07-28T15:05:01.268Z,8.80
2018-07-28T15:07:30.735Z,7.40
2018-07-28T15:09:59.353Z,8.67
2018-07-28T15:12:28.655Z,8.97
2018-07-28T15:14:57.816Z,7.93
2018-07-28T15:17:26.414Z,8.30
2018-07-28T15:19:55.988Z,9.10
2018-07-28T15:22:31.167Z,9.43
2018-07-28T15:25:00.942Z,7.73
2018-07-28T15:27:29.732Z,7.07
2018-07-28T15:29:59.729Z,10.17
2018-07-28T15:32:29.412Z,7.87
2018-07-28T15:34:58.283Z,8.43
2018-07-28T15:37:27.873Z,8.37
2018-07-28T15:39:56.636Z,11.20
2018-07-28T15:42:25.422Z,9.63
2018-07-28T15:44:54.193Z,11.50
2018-07-28T15:47:22.932Z,7.80
2018-07-28T15:49:51.946Z,9.10
2018-07-28T15:52:20.741Z,8.40
2018-07-28T15:54:50.163Z,7.80
2018-07-28T15:57:19.190Z,8.77
2018-07-28T15:59:49.381Z,9.03
2018-07-28T16:02:18.361Z,10.70
2018-07-28T16:04:47.634Z,10.33
2018-07-28T16:07:17.379Z,9.00
2018-07-28T16:09:46.036Z,14.17
2018-07-28T16:12:14.774Z,8.87
2018-07-28T16:14:43.818Z,8.97
2018-07-28T16:17:12.564Z,9.67
2018-07-28T16:19:41.178Z,9.73
2018-07-28T16:22:09.880Z,9.07
2018-07-28T16:24:38.561Z,7.73
2018-07-28T16:27:07.235Z,9.43
2018-07-28T16:29:35.892Z,9.20
2018-07-28T16:32:04.814Z,8.87
2018-07-28T16:34:33.481Z,10.57
2018-07-28T16:37:02.902Z,12.93
2018-07-28T16:39:31.629Z,9.77
2018-07-28T16:42:00.335Z,9.17
2018-07-28T16:44:29.847Z,9.70
2018-07-28T16:46:59.282Z,11.07
2018-07-28T16:49:28.085Z,9.27
2018-07-28T16:51:56.739Z,12.07
2018-07-28T16:54:25.512Z,10.50
2018-07-28T16:56:57.432Z,9.90
2018-07-28T16:59:28.525Z,10.57
2018-07-28T17:01:58.636Z,13.93
2018-07-28T17:04:34.508Z,9.70
2018-07-28T17:07:10.959Z,9.80
2018-07-28T17:09:40.591Z,11.23
2018-07-28T17:12:11.413Z,9.47
2018-07-28T17:15:03.755Z,12.77
2018-07-28T17:17:33.563Z,14.13
2018-07-28T17:20:04.121Z,14.10
2018-07-28T17:27:57.086Z,9.00
2018-07-28T17:30:27.644Z,9.57
2018-07-28T17:32:58.658Z,16.23
2018-07-28T17:35:30.329Z,10.60
2018-07-28T17:37:59.498Z,9.47
2018-07-28T17:43:21.676Z,16.13
2018-07-28T17:45:50.555Z,15.27
2018-07-28T17:48:19.360Z,11.90
2018-07-28T17:50:48.061Z,13.80
2018-07-28T17:53:16.766Z,16.93
2018-07-28T17:55:46.136Z,19.43
2018-07-28T17:58:15.333Z,19.83
2018-07-28T18:00:44.039Z,24.60
2018-07-28T18:03:12.781Z,23.93
2018-07-28T18:05:42.128Z,16.13
2018-07-28T18:08:10.794Z,18.50
2018-07-28T18:10:40.405Z,15.30
2018-07-28T18:13:09.306Z,12.10
2018-07-28T18:15:38.247Z,11.97
2018-07-28T18:18:06.992Z,10.63
2018-07-28T18:20:36.081Z,11.03
2018-07-28T18:23:05.330Z,15.00
2018-07-28T18:25:34.431Z,10.07
2018-07-28T18:28:03.441Z,10.40
2018-07-28T18:30:32.192Z,14.30
2018-07-28T18:33:01.085Z,13.43
2018-07-28T18:35:29.873Z,11.60
2018-07-28T18:37:59.437Z,10.73
2018-07-28T18:40:29.023Z,10.40
2018-07-28T18:42:58.085Z,9.97
2018-07-28T18:45:27.723Z,14.03
2018-07-28T18:47:56.544Z,10.73
2018-07-28T18:50:25.277Z,10.10
2018-07-28T18:52:54.085Z,12.50
2018-07-28T18:55:23.611Z,10.37
2018-07-28T18:57:52.325Z,9.97
2018-07-28T19:00:21.735Z,12.93
2018-07-28T19:02:50.468Z,11.27
2018-07-28T19:05:19.260Z,9.20
2018-07-28T19:07:48.095Z,13.67
2018-07-28T19:10:16.860Z,10.40
2018-07-28T19:12:50.922Z,10.93
2018-07-28T19:15:19.721Z,11.60
2018-07-28T19:18:53.188Z,11.80
2018-07-28T19:21:21.891Z,10.00
2018-07-28T19:23:55.992Z,10.60
2018-07-28T19:26:24.716Z,9.60
2018-07-28T19:28:58.732Z,11.03
2018-07-28T19:31:27.459Z,9.93
2018-07-28T19:33:56.191Z,10.67
2018-07-28T19:36:30.103Z,9.43
2018-07-28T19:38:58.885Z,9.00
2018-07-28T19:41:27.617Z,14.80
2018-07-28T19:43:56.418Z,11.33
2018-07-28T19:46:25.173Z,11.27
2018-07-28T19:48:54.118Z,11.63
2018-07-28T19:51:22.895Z,10.67
2018-07-28T19:53:51.640Z,9.30
2018-07-28T19:56:20.930Z,11.53
2018-07-28T19:58:49.742Z,11.50
2018-07-28T20:01:18.517Z,10.47
2018-07-28T20:03:47.335Z,9.47
2018-07-28T20:06:16.138Z,9.17
2018-07-28T20:08:44.850Z,11.20
2018-07-28T20:11:14.278Z,9.40
2018-07-28T20:13:43.016Z,10.70
2018-07-28T20:16:11.800Z,9.60
2018-07-28T20:18:40.856Z,9.70
2018-07-28T20:21:09.760Z,15.63
2018-07-28T20:23:38.499Z,10.37
2018-07-28T20:26:08.214Z,9.50
2018-07-28T20:28:37.255Z,11.10
2018-07-28T20:31:06.000Z,10.50
2018-07-28T20:33:34.815Z,12.43
2018-07-28T20:36:03.738Z,9.30
2018-07-28T20:38:32.473Z,10.10
2018-07-28T20:41:01.140Z,14.30
2018-07-28T20:43:30.417Z,10.00
2018-07-28T20:45:59.238Z,10.30
2018-07-28T20:48:28.769Z,13.57
2018-07-28T20:50:57.837Z,9.10
2018-07-28T20:53:31.078Z,12.10
2018-07-28T20:55:59.884Z,9.30
2018-07-28T20:58:28.622Z,9.67
2018-07-28T21:00:57.711Z,9.00
2018-07-28T21:03:27.020Z,10.90
2018-07-28T21:05:55.824Z,10.70
2018-07-28T21:08:24.707Z,11.27
2018-07-28T21:10:53.472Z,11.30
2018-07-28T21:13:22.649Z,11.80
2018-07-28T21:15:51.383Z,10.37
2018-07-28T21:18:20.484Z,12.10
2018-07-28T21:20:49.371Z,12.70
2018-07-28T21:23:18.865Z,11.47
2018-07-28T21:25:47.620Z,10.97
2018-07-28T21:28:16.332Z,11.77
2018-07-28T21:30:45.921Z,10.60
2018-07-28T21:33:14.793Z,11.73
2018-07-28T21:35:43.513Z,10.60
2018-07-28T21:38:12.483Z,12.37
2018-07-28T21:40:41.263Z,11.27
2018-07-28T21:43:10.025Z,11.80
2018-07-28T21:45:38.954Z,12.80
2018-07-28T21:48:07.776Z,11.77
2018-07-28T21:50:37.130Z,10.80
2018-07-28T21:53:06.011Z,11.67
2018-07-28T21:55:34.747Z,10.77
2018-07-28T21:58:10.080Z,11.20
2018-07-28T22:00:44.197Z,11.27
2018-07-28T22:03:13.232Z,11.67
2018-07-28T22:05:42.231Z,12.80
2018-07-28T22:08:10.976Z,14.73
2018-07-28T22:10:39.693Z,12.90
2018-07-28T22:13:08.857Z,11.10
2018-07-28T22:15:38.431Z,11.40
2018-07-28T22:18:07.657Z,12.83
2018-07-28T22:20:37.178Z,10.27
2018-07-28T22:23:06.072Z,10.97
2018-07-28T22:25:34.834Z,17.13
2018-07-28T22:28:03.601Z,12.63
2018-07-28T22:30:33.412Z,11.43
2018-07-28T22:33:02.275Z,11.20
2018-07-28T22:35:31.484Z,10.90
2018-07-28T22:38:00.689Z,15.07
2018-07-28T22:40:29.424Z,12.50
2018-07-28T22:42:58.193Z,10.70
2018-07-28T22:45:26.810Z,11.00
2018-07-28T22:47:55.505Z,11.37
2018-07-28T22:50:24.210Z,12.13
2018-07-28T22:52:52.955Z,10.17
2018-07-28T22:55:22.884Z,12.37
2018-07-28T22:57:51.618Z,9.90
2018-07-28T23:00:20.235Z,12.07
2018-07-28T23:02:49.310Z,11.80
2018-07-28T23:05:18.921Z,14.00
2018-07-28T23:07:47.642Z,10.70
2018-07-28T23:10:16.543Z,11.10
2018-07-28T23:12:45.273Z,10.37
2018-07-28T23:15:13.924Z,14.07
2018-07-28T23:17:43.466Z,10.97
2018-07-28T23:20:15.122Z,10.50
2018-07-28T23:22:43.991Z,13.20
2018-07-28T23:25:12.656Z,10.07
2018-07-28T23:27:41.309Z,12.10
2018-07-28T23:30:12.381Z,10.37
2018-07-28T23:32:41.711Z,10.80
2018-07-28T23:35:10.363Z,9.47
2018-07-28T23:37:39.062Z,12.17
2018-07-28T23:40:07.866Z,10.00
2018-07-28T23:42:37.557Z,8.80
2018-07-28T23:45:06.562Z,12.50
2018-07-28T23:47:35.332Z,14.77
2018-07-28T23:50:05.208Z,12.70
2018-07-28T23:52:42.363Z,14.93
2018-07-28T23:55:11.242Z,11.37
2018-07-28T23:57:40.105Z,10.53
